createdAt,value
2023-04-26T00:00:29.064Z,996.3
2023-04-26T00:01:46.176Z,996.3
2023-04-26T00:03:03.133Z,996.3
2023-04-26T00:04:20.293Z,996.3
2023-04-26T00:05:37.092Z,996.3
2023-04-26T00:06:54.049Z,996.3
2023-04-26T00:08:11.042Z,996.3
2023-04-26T00:09:28.082Z,996.3
2023-04-26T00:10:45.115Z,996.3
2023-04-26T00:12:02.075Z,996.3
2023-04-26T00:13:19.047Z,996.3
2023-04-26T00:14:36.067Z,996.3
2023-04-26T00:15:53.157Z,996.3
2023-04-26T00:17:10.106Z,996.3
2023-04-26T00:18:27.093Z,996.3
2023-04-26T00:19:44.094Z,996.3
2023-04-26T00:21:01.106Z,996.3
2023-04-26T00:22:18.099Z,996.3
2023-04-26T00:23:35.062Z,996.3
2023-04-26T00:24:52.069Z,996.3
2023-04-26T00:26:09.072Z,996.4
2023-04-26T00:27:26.152Z,996.4
2023-04-26T00:28:43.073Z,996.4
2023-04-26T00:30:00.076Z,996.4
2023-04-26T00:31:17.102Z,996.4
2023-04-26T00:32:34.153Z,996.4
2023-04-26T00:33:51.106Z,996.4
2023-04-26T00:35:08.077Z,996.4
2023-04-26T00:36:25.081Z,996.4
2023-04-26T00:37:42.095Z,996.4
2023-04-26T00:38:59.366Z,996.4
2023-04-26T00:40:16.087Z,996.4
2023-04-26T00:41:33.113Z,996.4
2023-04-26T00:42:50.092Z,996.4
2023-04-26T00:44:07.140Z,996.4
2023-04-26T00:45:24.087Z,996.5
2023-04-26T00:46:41.127Z,996.4
2023-04-26T00:47:58.136Z,996.4
2023-04-26T00:49:15.124Z,996.4
2023-04-26T00:50:32.158Z,996.4
2023-04-26T00:51:49.115Z,996.4
2023-04-26T00:53:06.103Z,996.2
2023-04-26T00:54:23.466Z,996.4
2023-04-26T00:55:40.169Z,996.4
2023-04-26T00:56:57.833Z,996.4
2023-04-26T00:58:14.914Z,996.4
2023-04-26T00:59:32.269Z,996.5
2023-04-26T01:00:49.395Z,996.5
2023-04-26T01:02:06.158Z,996.5
2023-04-26T01:03:23.635Z,996.5
2023-04-26T01:04:40.134Z,996.5
2023-04-26T01:05:57.129Z,996.5
2023-04-26T01:07:14.186Z,996.5
2023-04-26T01:08:31.120Z,996.5
2023-04-26T01:09:48.163Z,996.5
2023-04-26T01:11:05.144Z,996.5
2023-04-26T01:12:22.159Z,996.5
2023-04-26T01:13:39.166Z,996.5
2023-04-26T01:14:56.187Z,996.5
2023-04-26T01:16:13.140Z,996.5
2023-04-26T01:17:30.195Z,996.5
2023-04-26T01:18:47.160Z,996.5
2023-04-26T01:20:04.218Z,996.6
2023-04-26T01:21:21.164Z,996.6
2023-04-26T01:22:38.222Z,996.6
2023-04-26T01:23:55.156Z,996.6
2023-04-26T01:25:12.176Z,996.5
2023-04-26T01:26:29.167Z,996.6
2023-04-26T01:27:46.146Z,996.6
2023-04-26T01:29:03.198Z,996.6
2023-04-26T01:30:20.206Z,996.7
2023-04-26T01:31:37.293Z,996.7
2023-04-26T01:32:54.263Z,996.7
2023-04-26T01:34:11.232Z,996.6
2023-04-26T01:35:28.201Z,996.7
2023-04-26T01:36:45.240Z,996.7
2023-04-26T01:38:02.219Z,996.7
2023-04-26T01:39:19.182Z,996.7
2023-04-26T01:40:36.171Z,996.7
2023-04-26T01:41:53.243Z,996.7
2023-04-26T01:43:10.463Z,996.7
2023-04-26T01:44:27.170Z,996.7
2023-04-26T01:45:44.176Z,996.7
2023-04-26T01:47:01.246Z,996.7
2023-04-26T01:48:18.188Z,996.7
2023-04-26T01:49:35.269Z,996.7
2023-04-26T01:50:52.188Z,996.6
2023-04-26T01:52:09.194Z,996.7
2023-04-26T01:53:26.189Z,996.7
2023-04-26T01:54:43.218Z,996.7
2023-04-26T01:56:00.192Z,996.7
2023-04-26T01:57:17.219Z,996.7
2023-04-26T01:58:34.210Z,996.7
2023-04-26T01:59:51.200Z,996.7
2023-04-26T02:01:08.247Z,996.7
2023-04-26T02:02:25.248Z,996.7
2023-04-26T02:03:42.263Z,996.7
2023-04-26T02:04:59.306Z,996.7
2023-04-26T02:06:16.202Z,996.8
2023-04-26T02:07:33.208Z,996.8
2023-04-26T02:08:50.365Z,996.8
2023-04-26T02:10:07.203Z,996.8
2023-04-26T02:11:24.249Z,996.8
2023-04-26T02:12:41.232Z,996.8
2023-04-26T02:13:58.288Z,996.8
2023-04-26T02:15:15.212Z,996.8
2023-04-26T02:16:32.247Z,996.8
2023-04-26T02:17:49.266Z,996.8
2023-04-26T02:19:06.277Z,996.8
2023-04-26T02:20:23.238Z,996.8
2023-04-26T02:21:40.240Z,996.8
2023-04-26T02:22:57.236Z,996.8
2023-04-26T02:24:14.270Z,996.8
2023-04-26T02:25:31.264Z,996.7
2023-04-26T02:26:48.274Z,996.7
2023-04-26T02:28:05.239Z,996.7
2023-04-26T02:29:29.687Z,996.7
2023-04-26T02:30:39.289Z,996.7
2023-04-26T02:31:56.273Z,996.8
2023-04-26T02:33:13.234Z,996.8
2023-04-26T02:34:30.241Z,996.8
2023-04-26T02:35:47.319Z,996.8
2023-04-26T02:37:04.262Z,996.8
2023-04-26T02:38:21.294Z,996.8
2023-04-26T02:39:38.251Z,996.8
2023-04-26T02:40:55.256Z,996.8
2023-04-26T02:42:12.350Z,996.8
2023-04-26T02:43:29.275Z,996.8
2023-04-26T02:44:46.246Z,996.7
2023-04-26T02:46:03.273Z,996.8
2023-04-26T02:47:20.259Z,996.8
2023-04-26T02:48:37.283Z,996.7
2023-04-26T02:49:54.245Z,996.7
2023-04-26T02:51:11.284Z,996.8
2023-04-26T02:52:28.269Z,996.7
2023-04-26T02:53:45.568Z,996.7
2023-04-26T02:55:02.287Z,996.6
2023-04-26T02:56:19.263Z,996.7
2023-04-26T02:57:36.279Z,996.7
2023-04-26T02:58:53.453Z,996.7
2023-04-26T03:00:10.291Z,996.7
2023-04-26T03:01:27.318Z,996.7
2023-04-26T03:02:44.422Z,996.7
2023-04-26T03:04:01.378Z,996.7
2023-04-26T03:05:18.315Z,996.7
2023-04-26T03:06:35.303Z,996.8
2023-04-26T03:07:52.276Z,996.8
2023-04-26T03:09:09.602Z,996.8
2023-04-26T03:10:26.277Z,996.8
2023-04-26T03:11:43.302Z,996.8
2023-04-26T03:13:00.295Z,996.9
2023-04-26T03:14:17.408Z,996.9
2023-04-26T03:15:34.310Z,996.9
2023-04-26T03:16:51.356Z,996.9
2023-04-26T03:18:08.420Z,996.9
2023-04-26T03:19:25.364Z,996.9
2023-04-26T03:20:42.302Z,997
2023-04-26T03:21:59.340Z,997
2023-04-26T03:23:16.318Z,997
2023-04-26T03:24:33.297Z,997
2023-04-26T03:25:50.386Z,997
2023-04-26T03:27:07.417Z,997
2023-04-26T03:28:24.426Z,997
2023-04-26T03:29:43.492Z,997
2023-04-26T03:30:58.359Z,997
2023-04-26T03:32:15.428Z,997
2023-04-26T03:33:32.325Z,997
2023-04-26T03:34:49.392Z,997
2023-04-26T03:36:06.326Z,997.1
2023-04-26T03:37:23.369Z,997.1
2023-04-26T03:38:40.316Z,997.1
2023-04-26T03:39:57.383Z,997.1
2023-04-26T03:41:14.570Z,997.1
2023-04-26T03:42:31.359Z,997.1
2023-04-26T03:43:48.335Z,997.1
2023-04-26T03:45:05.362Z,997.1
2023-04-26T03:46:22.529Z,997.1
2023-04-26T03:47:39.425Z,997.1
2023-04-26T03:48:56.351Z,997.2
2023-04-26T03:50:13.344Z,997.2
2023-04-26T03:51:30.448Z,997.2
2023-04-26T03:52:47.618Z,997.2
2023-04-26T03:54:04.340Z,997.3
2023-04-26T03:55:21.354Z,997.3
2023-04-26T03:56:38.384Z,997.2
2023-04-26T03:57:55.338Z,997.2
2023-04-26T03:59:12.386Z,997.2
2023-04-26T04:00:29.364Z,997.2
2023-04-26T04:01:46.453Z,997.2
2023-04-26T04:03:03.607Z,997.2
2023-04-26T04:04:20.558Z,997.2
2023-04-26T04:05:37.430Z,997.2
2023-04-26T04:06:54.356Z,997.2
2023-04-26T04:08:11.461Z,997.3
2023-04-26T04:09:28.362Z,997.3
2023-04-26T04:10:45.364Z,997.3
2023-04-26T04:12:02.799Z,997.3
2023-04-26T04:13:19.390Z,997.3
2023-04-26T04:14:36.387Z,997.3
2023-04-26T04:15:53.433Z,997.3
2023-04-26T04:17:10.406Z,997.3
2023-04-26T04:18:27.431Z,997.3
2023-04-26T04:19:44.394Z,997.2
2023-04-26T04:21:01.392Z,997.3
2023-04-26T04:22:18.370Z,997.4
2023-04-26T04:23:35.463Z,997.3
2023-04-26T04:24:52.411Z,997.3
2023-04-26T04:26:09.386Z,997.3
2023-04-26T04:27:26.371Z,997.4
2023-04-26T04:28:43.468Z,997.4
2023-04-26T04:30:00.385Z,997.4
2023-04-26T04:31:17.380Z,997.4
2023-04-26T04:32:34.403Z,997.5
2023-04-26T04:33:51.471Z,997.5
2023-04-26T04:35:08.395Z,997.5
2023-04-26T04:36:25.400Z,997.5
2023-04-26T04:37:42.425Z,997.5
2023-04-26T04:38:59.455Z,997.5
2023-04-26T04:40:16.406Z,997.6
2023-04-26T04:41:33.430Z,997.6
2023-04-26T04:42:50.447Z,997.6
2023-04-26T04:44:07.437Z,997.6
2023-04-26T04:45:24.554Z,997.7
2023-04-26T04:46:43.057Z,997.7
2023-04-26T04:48:01.646Z,997.7
2023-04-26T04:49:20.217Z,997.7
2023-04-26T04:50:38.336Z,997.7
2023-04-26T04:51:56.491Z,997.7
2023-04-26T04:53:13.498Z,997.7
2023-04-26T04:54:31.474Z,997.7
2023-04-26T04:55:48.432Z,997.8
2023-04-26T04:57:05.480Z,997.8
2023-04-26T04:58:23.098Z,997.7
2023-04-26T04:59:40.460Z,997.8
2023-04-26T05:00:57.453Z,997.8
2023-04-26T05:02:17.180Z,997.8
2023-04-26T05:03:33.520Z,997.8
2023-04-26T05:04:50.540Z,997.8
2023-04-26T05:06:07.425Z,997.8
2023-04-26T05:07:24.811Z,997.8
2023-04-26T05:08:41.497Z,997.8
2023-04-26T05:09:58.460Z,997.8
2023-04-26T05:11:15.431Z,997.8
2023-04-26T05:12:32.467Z,997.8
2023-04-26T05:13:51.627Z,997.8
2023-04-26T05:15:06.476Z,997.8
2023-04-26T05:16:23.460Z,997.9
2023-04-26T05:17:40.461Z,997.8
2023-04-26T05:18:57.478Z,997.8
2023-04-26T05:20:14.478Z,997.9
2023-04-26T05:21:31.451Z,997.8
2023-04-26T05:22:48.508Z,997.9
2023-04-26T05:24:05.757Z,997.9
2023-04-26T05:25:22.881Z,997.9
2023-04-26T05:26:39.480Z,997.9
2023-04-26T05:27:56.500Z,997.9
2023-04-26T05:29:13.453Z,997.9
2023-04-26T05:30:30.505Z,997.9
2023-04-26T05:31:47.475Z,997.9
2023-04-26T05:33:04.527Z,997.9
2023-04-26T05:34:21.496Z,997.9
2023-04-26T05:35:38.574Z,998
2023-04-26T05:36:55.499Z,997.9
2023-04-26T05:38:12.481Z,997.9
2023-04-26T05:39:29.474Z,998
2023-04-26T05:40:46.551Z,998
2023-04-26T05:42:03.540Z,998
2023-04-26T05:43:20.504Z,997.9
2023-04-26T05:44:39.578Z,997.9
2023-04-26T05:45:56.579Z,997.9
2023-04-26T05:47:13.497Z,998
2023-04-26T05:48:30.497Z,997.9
2023-04-26T05:49:47.509Z,997.9
2023-04-26T05:51:04.551Z,997.9
2023-04-26T05:52:21.533Z,997.8
2023-04-26T05:53:38.565Z,997.7
2023-04-26T05:54:55.490Z,997.5
2023-04-26T05:56:12.593Z,997.3
2023-04-26T05:57:29.523Z,997.2
2023-04-26T05:58:46.504Z,997.2
2023-04-26T06:00:03.533Z,997.1
2023-04-26T06:01:20.543Z,997.2
2023-04-26T06:02:37.578Z,997.2
2023-04-26T06:03:57.144Z,997.2
2023-04-26T06:05:11.697Z,997.1
2023-04-26T06:06:28.648Z,997.2
2023-04-26T06:07:45.529Z,997.2
2023-04-26T06:09:02.526Z,997.2
2023-04-26T06:10:19.528Z,997.3
2023-04-26T06:11:36.595Z,997.2
2023-04-26T06:12:53.516Z,997.2
2023-04-26T06:14:19.993Z,997.2
2023-04-26T06:15:27.526Z,997.2
2023-04-26T06:16:44.575Z,997.2
2023-04-26T06:18:01.596Z,997.3
2023-04-26T06:19:18.659Z,997.3
2023-04-26T06:20:35.663Z,997.3
2023-04-26T06:21:52.721Z,997.3
2023-04-26T06:23:09.585Z,997.3
2023-04-26T06:24:26.541Z,997.5
2023-04-26T06:25:43.571Z,997.4
2023-04-26T06:27:00.631Z,997.4
2023-04-26T06:28:17.538Z,997.4
2023-04-26T06:29:34.562Z,997.4
2023-04-26T06:30:51.608Z,997.4
2023-04-26T06:32:08.585Z,997.4
2023-04-26T06:33:25.556Z,997.4
2023-04-26T06:34:42.558Z,997.4
2023-04-26T06:35:59.560Z,997.5
2023-04-26T06:37:16.585Z,997.4
2023-04-26T06:38:33.555Z,997.4
2023-04-26T06:39:50.549Z,997.5
2023-04-26T06:41:07.588Z,997.5
2023-04-26T06:42:24.661Z,997.9
2023-04-26T06:43:41.578Z,997.7
2023-04-26T06:44:58.579Z,997.5
2023-04-26T06:46:15.611Z,997.9
2023-04-26T06:47:32.710Z,997.6
2023-04-26T06:48:49.572Z,997.5
2023-04-26T06:50:06.619Z,997.4
2023-04-26T06:51:23.582Z,997.4
2023-04-26T06:52:40.611Z,997.4
2023-04-26T06:53:57.592Z,997.4
2023-04-26T06:55:14.671Z,997.5
2023-04-26T06:56:31.656Z,997.5
2023-04-26T06:57:48.667Z,997.5
2023-04-26T06:59:05.590Z,997.5
2023-04-26T07:00:22.676Z,997.9
2023-04-26T07:01:39.623Z,998.2
2023-04-26T07:02:56.742Z,997.8
2023-04-26T07:04:13.724Z,998.1
2023-04-26T07:05:30.627Z,997.8
2023-04-26T07:06:47.589Z,997.9
2023-04-26T07:08:04.654Z,997.7
2023-04-26T07:09:21.647Z,997.5
2023-04-26T07:10:38.600Z,997.7
2023-04-26T07:11:55.618Z,997.6
2023-04-26T07:13:12.678Z,997.5
2023-04-26T07:14:29.615Z,997.5
2023-04-26T07:15:46.734Z,997.5
2023-04-26T07:17:03.682Z,997.5
2023-04-26T07:18:20.630Z,997.5
2023-04-26T07:19:37.684Z,997.5
2023-04-26T07:20:54.626Z,997.5
2023-04-26T07:22:11.644Z,997.8
2023-04-26T07:23:28.654Z,997.6
2023-04-26T07:24:46.180Z,997.6
2023-04-26T07:26:02.660Z,997.5
2023-04-26T07:27:19.617Z,997.5
2023-04-26T07:28:36.666Z,997.5
2023-04-26T07:29:53.643Z,997.5
2023-04-26T07:31:11.018Z,997.5
2023-04-26T07:32:27.680Z,998
2023-04-26T07:33:44.682Z,998.3
2023-04-26T07:35:01.692Z,998.3
2023-04-26T07:36:18.687Z,997.9
2023-04-26T07:37:35.700Z,997.8
2023-04-26T07:38:52.662Z,998.1
2023-04-26T07:40:09.674Z,998.3
2023-04-26T07:41:26.681Z,998.3
2023-04-26T07:42:43.645Z,998.3
2023-04-26T07:44:00.727Z,998.4
2023-04-26T07:45:17.761Z,998.5
2023-04-26T07:46:34.724Z,998.5
2023-04-26T07:47:51.698Z,998.1
2023-04-26T07:49:08.656Z,997.9
2023-04-26T07:50:25.687Z,997.8
2023-04-26T07:51:42.672Z,997.8
2023-04-26T07:52:59.684Z,997.8
2023-04-26T07:54:16.679Z,997.8
2023-04-26T07:55:33.733Z,997.8
2023-04-26T07:56:50.699Z,997.8
2023-04-26T07:58:07.685Z,997.8
2023-04-26T07:59:24.801Z,997.8
2023-04-26T08:00:41.760Z,997.7
2023-04-26T08:01:58.725Z,998.1
2023-04-26T08:03:15.799Z,998.4
2023-04-26T08:04:32.896Z,998
2023-04-26T08:05:50.119Z,998.3
2023-04-26T08:07:06.791Z,998.5
2023-04-26T08:08:23.753Z,998.5
2023-04-26T08:09:40.693Z,998.5
2023-04-26T08:10:57.703Z,998.6
2023-04-26T08:12:14.759Z,998.2
2023-04-26T08:13:31.706Z,998.4
2023-04-26T08:14:48.729Z,998.1
2023-04-26T08:16:05.788Z,998
2023-04-26T08:17:22.799Z,998.3
2023-04-26T08:18:39.727Z,998.4
2023-04-26T08:19:56.723Z,998.1
2023-04-26T08:21:14.142Z,998.3
2023-04-26T08:22:30.769Z,998.5
2023-04-26T08:23:47.712Z,998.2
2023-04-26T08:25:04.701Z,998.1
2023-04-26T08:26:21.717Z,998.3
2023-04-26T08:27:39.343Z,998.2
2023-04-26T08:28:55.707Z,998.2
2023-04-26T08:30:12.872Z,998.1
2023-04-26T08:31:29.771Z,998.1
2023-04-26T08:32:46.834Z,998.1
2023-04-26T08:34:03.739Z,998.3
2023-04-26T08:35:20.808Z,998.3
2023-04-26T08:36:37.784Z,998.5
2023-04-26T08:37:54.778Z,998.4
2023-04-26T08:39:11.792Z,998.6
2023-04-26T08:40:28.758Z,998.3
2023-04-26T08:41:45.739Z,998.2
2023-04-26T08:43:02.740Z,998.4
2023-04-26T08:44:19.789Z,998.2
2023-04-26T08:45:36.870Z,998.2
2023-04-26T08:46:53.951Z,998.5
2023-04-26T08:48:10.875Z,998.4
2023-04-26T08:49:27.801Z,998.6
2023-04-26T08:50:44.762Z,998.4
2023-04-26T08:52:01.809Z,998.3
2023-04-26T08:53:18.767Z,998.2
2023-04-26T08:54:35.785Z,998.5
2023-04-26T08:55:52.834Z,998.6
2023-04-26T08:57:09.771Z,998.7
2023-04-26T08:58:26.762Z,998.8
2023-04-26T08:59:43.790Z,998.7
2023-04-26T09:01:00.824Z,998.8
2023-04-26T09:02:17.870Z,998.8
2023-04-26T09:03:34.907Z,998.9
2023-04-26T09:04:51.948Z,998.8
2023-04-26T09:06:08.812Z,998.8
2023-04-26T09:07:25.758Z,998.8
2023-04-26T09:08:42.769Z,998.6
2023-04-26T09:09:59.785Z,998.5
2023-04-26T09:11:16.802Z,998.5
2023-04-26T09:12:33.797Z,998.7
2023-04-26T09:13:50.959Z,998.8
2023-04-26T09:15:07.784Z,998.6
2023-04-26T09:16:24.931Z,998.5
2023-04-26T09:17:42.035Z,998.6
2023-04-26T09:18:58.778Z,998.8
2023-04-26T09:20:15.832Z,998.7
2023-04-26T09:21:32.855Z,998.8
2023-04-26T09:22:49.864Z,998.7
2023-04-26T09:24:06.803Z,998.7
2023-04-26T09:25:24.425Z,998.8
2023-04-26T09:26:41.139Z,998.6
2023-04-26T09:27:57.813Z,998.6
2023-04-26T09:29:14.829Z,998.5
2023-04-26T09:30:31.833Z,998.5
2023-04-26T09:31:49.893Z,998.5
2023-04-26T09:33:05.883Z,998.5
2023-04-26T09:34:22.895Z,998.4
2023-04-26T09:35:39.824Z,998.4
2023-04-26T09:36:56.804Z,998.6
2023-04-26T09:38:14.431Z,998.7
2023-04-26T09:39:30.868Z,998.7
2023-04-26T09:40:47.847Z,998.7
2023-04-26T09:42:04.945Z,998.8
2023-04-26T09:43:21.887Z,998.8
2023-04-26T09:44:38.858Z,998.9
2023-04-26T09:45:55.819Z,998.9
2023-04-26T09:47:12.910Z,998.9
2023-04-26T09:48:29.831Z,998.9
2023-04-26T09:49:46.926Z,998.9
2023-04-26T09:51:03.833Z,998.8
2023-04-26T09:52:20.826Z,998.9
2023-04-26T09:53:37.882Z,998.9
2023-04-26T09:54:54.969Z,998.9
2023-04-26T09:56:11.909Z,998.8
2023-04-26T09:57:28.829Z,998.7
2023-04-26T09:58:45.835Z,998.7
2023-04-26T10:00:02.867Z,998.7
2023-04-26T10:01:19.994Z,998.6
2023-04-26T10:02:36.946Z,998.6
2023-04-26T10:03:54.007Z,998.7
2023-04-26T10:05:10.887Z,998.8
2023-04-26T10:06:27.828Z,998.8
2023-04-26T10:07:44.864Z,998.7
2023-04-26T10:09:01.855Z,998.8
2023-04-26T10:10:18.946Z,998.8
2023-04-26T10:11:35.848Z,998.9
2023-04-26T10:12:52.860Z,998.8
2023-04-26T10:14:09.851Z,998.8
2023-04-26T10:15:26.908Z,998.8
2023-04-26T10:16:43.937Z,998.9
2023-04-26T10:18:00.972Z,998.9
2023-04-26T10:19:17.879Z,998.9
2023-04-26T10:20:34.928Z,998.9
2023-04-26T10:21:51.886Z,998.9
2023-04-26T10:23:08.880Z,998.9
2023-04-26T10:24:25.874Z,998.9
2023-04-26T10:25:43.005Z,998.9
2023-04-26T10:26:59.874Z,999
2023-04-26T10:28:16.892Z,998.9
2023-04-26T10:29:33.878Z,998.8
2023-04-26T10:30:50.989Z,998.8
2023-04-26T10:32:07.949Z,998.8
2023-04-26T10:33:24.943Z,998.8
2023-04-26T10:34:41.878Z,998.8
2023-04-26T10:35:58.924Z,998.8
2023-04-26T10:37:15.913Z,998.8
2023-04-26T10:38:32.933Z,998.8
2023-04-26T10:39:49.885Z,998.9
2023-04-26T10:41:06.944Z,999
2023-04-26T10:42:24.642Z,999
2023-04-26T10:43:40.895Z,999
2023-04-26T10:44:57.914Z,999
2023-04-26T10:46:15.563Z,999
2023-04-26T10:47:32.131Z,998.9
2023-04-26T10:48:48.920Z,999
2023-04-26T10:50:06.296Z,999
2023-04-26T10:51:22.947Z,999
2023-04-26T10:52:40.239Z,999
2023-04-26T10:53:57.183Z,999
2023-04-26T10:55:13.980Z,999
2023-04-26T10:56:30.946Z,998.9
2023-04-26T10:57:47.989Z,998.9
2023-04-26T10:59:08.210Z,998.9
2023-04-26T11:00:21.955Z,998.8
2023-04-26T11:01:38.968Z,998.8
2023-04-26T11:02:56.047Z,998.8
2023-04-26T11:04:13.054Z,998.7
2023-04-26T11:05:29.922Z,998.7
2023-04-26T11:06:46.935Z,998.8
2023-04-26T11:08:03.943Z,998.8
2023-04-26T11:09:20.958Z,998.9
2023-04-26T11:10:37.938Z,998.9
2023-04-26T11:11:54.973Z,998.9
2023-04-26T11:13:11.976Z,999
2023-04-26T11:14:28.974Z,998.9
2023-04-26T11:15:45.999Z,998.8
2023-04-26T11:17:02.970Z,998.9
2023-04-26T11:18:19.974Z,999
2023-04-26T11:19:37.003Z,999
2023-04-26T11:20:53.941Z,999
2023-04-26T11:22:10.975Z,999
2023-04-26T11:23:27.942Z,999.1
2023-04-26T11:24:44.972Z,999.1
2023-04-26T11:26:01.986Z,999.1
2023-04-26T11:27:18.948Z,999.1
2023-04-26T11:28:35.959Z,999.1
2023-04-26T11:29:52.978Z,999.1
2023-04-26T11:31:09.993Z,999
2023-04-26T11:32:27.072Z,999
2023-04-26T11:33:43.997Z,999
2023-04-26T11:35:01.046Z,999.1
2023-04-26T11:36:17.983Z,999.1
2023-04-26T11:37:34.957Z,999
2023-04-26T11:38:52.109Z,999
2023-04-26T11:40:09.000Z,999
2023-04-26T11:41:25.984Z,999
2023-04-26T11:42:43.052Z,999
2023-04-26T11:44:00.065Z,999
2023-04-26T11:45:17.010Z,999
2023-04-26T11:46:34.063Z,998.9
2023-04-26T11:47:51.008Z,998.9
2023-04-26T11:49:07.995Z,998.9
2023-04-26T11:50:25.086Z,998.9
2023-04-26T11:51:42.108Z,998.9
2023-04-26T11:52:58.982Z,998.9
2023-04-26T11:54:15.989Z,998.9
2023-04-26T11:55:33.015Z,999
2023-04-26T11:56:49.991Z,999
2023-04-26T11:58:07.019Z,999
2023-04-26T11:59:24.070Z,999
2023-04-26T12:00:41.090Z,999.1
2023-04-26T12:01:58.216Z,999
2023-04-26T12:03:15.134Z,999.1
2023-04-26T12:04:32.127Z,999.1
2023-04-26T12:05:49.089Z,999.1
2023-04-26T12:07:06.220Z,999.2
2023-04-26T12:08:23.013Z,999.2
2023-04-26T12:09:40.032Z,999.1
2023-04-26T12:10:57.037Z,999.1
2023-04-26T12:12:14.202Z,999.2
2023-04-26T12:13:31.053Z,999.3
2023-04-26T12:14:48.059Z,999.3
2023-04-26T12:16:07.387Z,999.3
2023-04-26T12:17:22.167Z,999.3
2023-04-26T12:18:39.039Z,999.3
2023-04-26T12:19:56.088Z,999.3
2023-04-26T12:21:13.190Z,999.3
2023-04-26T12:22:30.096Z,999.3
2023-04-26T12:23:47.074Z,999.3
2023-04-26T12:25:04.155Z,999.2
2023-04-26T12:26:21.114Z,999.3
2023-04-26T12:27:38.070Z,999.2
2023-04-26T12:28:55.081Z,999.2
2023-04-26T12:30:12.101Z,999.2
2023-04-26T12:31:29.093Z,999.2
2023-04-26T12:32:46.155Z,999.1
2023-04-26T12:34:03.474Z,999
2023-04-26T12:35:20.088Z,999.1
2023-04-26T12:36:37.210Z,999.2
2023-04-26T12:37:54.150Z,999.2
2023-04-26T12:39:11.152Z,999.2
2023-04-26T12:40:28.078Z,999.2
2023-04-26T12:41:45.057Z,999.3
2023-04-26T12:43:02.133Z,999.3
2023-04-26T12:44:21.358Z,999.2
2023-04-26T12:45:36.111Z,999.2
2023-04-26T12:46:53.211Z,999.3
2023-04-26T12:48:10.098Z,999.3
2023-04-26T12:49:27.068Z,999.2
2023-04-26T12:50:44.130Z,999.2
2023-04-26T12:52:01.137Z,999.1
2023-04-26T12:53:18.101Z,999.2
2023-04-26T12:54:35.097Z,999.2
2023-04-26T12:55:52.119Z,999.3
2023-04-26T12:57:09.115Z,999.3
2023-04-26T12:58:26.090Z,999.3
2023-04-26T12:59:43.163Z,999.3
2023-04-26T13:01:00.329Z,999.3
2023-04-26T13:02:17.132Z,999.4
2023-04-26T13:03:34.231Z,999.4
2023-04-26T13:04:51.333Z,999.4
2023-04-26T13:06:08.160Z,999.3
2023-04-26T13:07:25.222Z,999.2
2023-04-26T13:08:42.090Z,999.2
2023-04-26T13:09:59.174Z,999.2
2023-04-26T13:11:16.099Z,999.2
2023-04-26T13:12:33.108Z,999.3
2023-04-26T13:13:50.127Z,999.3
2023-04-26T13:15:07.145Z,999.3
2023-04-26T13:16:24.203Z,999.3
2023-04-26T13:17:41.182Z,999.3
2023-04-26T13:18:58.152Z,999.3
2023-04-26T13:20:15.105Z,999.3
2023-04-26T13:21:32.161Z,999.4
2023-04-26T13:22:49.220Z,999.5
2023-04-26T13:24:06.144Z,999.5
2023-04-26T13:25:23.165Z,999.5
2023-04-26T13:26:40.149Z,999.5
2023-04-26T13:27:57.162Z,999.6
2023-04-26T13:29:14.206Z,999.6
2023-04-26T13:30:31.345Z,999.5
2023-04-26T13:31:48.196Z,999.5
2023-04-26T13:33:05.164Z,999.5
2023-04-26T13:34:22.259Z,999.5
2023-04-26T13:35:39.164Z,999.5
2023-04-26T13:36:56.245Z,999.5
2023-04-26T13:38:13.472Z,999.5
2023-04-26T13:39:30.182Z,999.6
2023-04-26T13:40:47.257Z,999.6
2023-04-26T13:42:04.387Z,999.6
2023-04-26T13:43:21.320Z,999.6
2023-04-26T13:44:38.164Z,999.6
2023-04-26T13:45:55.242Z,999.6
2023-04-26T13:47:12.162Z,999.6
2023-04-26T13:48:29.148Z,999.6
2023-04-26T13:49:46.174Z,999.6
2023-04-26T13:51:04.425Z,999.6
2023-04-26T13:52:20.174Z,999.6
2023-04-26T13:53:37.230Z,999.6
2023-04-26T13:54:54.160Z,999.6
2023-04-26T13:56:11.180Z,999.6
2023-04-26T13:57:28.183Z,999.6
2023-04-26T13:58:45.174Z,999.6
2023-04-26T14:00:02.297Z,999.7
2023-04-26T14:01:19.232Z,999.7
2023-04-26T14:02:36.286Z,999.7
2023-04-26T14:03:55.711Z,999.7
2023-04-26T14:05:10.345Z,999.6
2023-04-26T14:06:27.220Z,999.6
2023-04-26T14:07:44.190Z,999.6
2023-04-26T14:09:01.235Z,999.6
2023-04-26T14:10:18.219Z,999.6
2023-04-26T14:11:35.226Z,999.6
2023-04-26T14:12:52.190Z,999.6
2023-04-26T14:14:09.187Z,999.6
2023-04-26T14:15:26.255Z,999.6
2023-04-26T14:16:43.258Z,999.6
2023-04-26T14:18:00.227Z,999.6
2023-04-26T14:19:18.842Z,999.6
2023-04-26T14:20:36.200Z,999.6
2023-04-26T14:21:53.235Z,999.6
2023-04-26T14:23:10.219Z,999.7
2023-04-26T14:24:27.252Z,999.6
2023-04-26T14:25:44.262Z,999.6
2023-04-26T14:27:01.201Z,999.6
2023-04-26T14:28:18.386Z,999.6
2023-04-26T14:29:35.225Z,999.5
2023-04-26T14:30:52.270Z,999.5
2023-04-26T14:32:09.282Z,999.5
2023-04-26T14:33:26.372Z,999.6
2023-04-26T14:34:43.255Z,999.6
2023-04-26T14:36:00.255Z,999.6
2023-04-26T14:37:17.228Z,999.6
2023-04-26T14:38:34.281Z,999.6
2023-04-26T14:39:51.569Z,999.7
2023-04-26T14:41:08.284Z,999.7
2023-04-26T14:42:25.258Z,999.7
2023-04-26T14:43:42.294Z,999.7
2023-04-26T14:44:59.288Z,999.7
2023-04-26T14:46:16.299Z,999.7
2023-04-26T14:47:33.267Z,999.7
2023-04-26T14:48:50.251Z,999.7
2023-04-26T14:50:07.251Z,999.7
2023-04-26T14:51:24.261Z,999.7
2023-04-26T14:52:41.258Z,999.7
2023-04-26T14:53:58.235Z,999.8
2023-04-26T14:55:15.318Z,999.8
2023-04-26T14:56:32.311Z,999.8
2023-04-26T14:57:49.434Z,999.9
2023-04-26T14:59:08.351Z,999.9
2023-04-26T15:00:26.145Z,999.9
2023-04-26T15:01:44.151Z,999.9
2023-04-26T15:03:00.437Z,999.9
2023-04-26T15:04:20.635Z,999.9
2023-04-26T15:05:37.448Z,999.9
2023-04-26T15:06:54.503Z,999.9
2023-04-26T15:08:11.434Z,1000
2023-04-26T15:09:30.446Z,1000
2023-04-26T15:10:45.352Z,1000
2023-04-26T15:12:06.184Z,1000
2023-04-26T15:13:23.341Z,1000
2023-04-26T15:14:40.287Z,1000
2023-04-26T15:15:57.319Z,1000.1
2023-04-26T15:17:14.305Z,1000.1
2023-04-26T15:18:31.286Z,1000.1
2023-04-26T15:19:48.278Z,1000.1
2023-04-26T15:21:05.304Z,1000.1
2023-04-26T15:22:22.307Z,1000.1
2023-04-26T15:23:39.499Z,1000.1
2023-04-26T15:24:56.294Z,1000.1
2023-04-26T15:26:13.338Z,1000.1
2023-04-26T15:27:30.332Z,1000.2
2023-04-26T15:28:47.302Z,1000.2
2023-04-26T15:30:04.381Z,1000.2
2023-04-26T15:31:21.360Z,1000.2
2023-04-26T15:32:38.493Z,1000.2
2023-04-26T15:33:55.606Z,1000.2
2023-04-26T15:35:12.293Z,1000.2
2023-04-26T15:36:31.082Z,1000.2
2023-04-26T15:37:47.310Z,1000.2
2023-04-26T15:39:04.370Z,1000.1
2023-04-26T15:40:21.312Z,1000.1
2023-04-26T15:41:38.560Z,1000.1
2023-04-26T15:42:55.338Z,1000.1
2023-04-26T15:44:12.318Z,1000.1
2023-04-26T15:45:29.315Z,1000.1
2023-04-26T15:46:46.379Z,1000.1
2023-04-26T15:48:03.474Z,1000.1
2023-04-26T15:49:20.377Z,1000.1
2023-04-26T15:50:37.333Z,1000.1
2023-04-26T15:51:54.332Z,1000.1
2023-04-26T15:53:11.553Z,1000.1
2023-04-26T15:54:28.370Z,1000.1
2023-04-26T15:55:45.331Z,1000.1
2023-04-26T15:57:02.356Z,1000
2023-04-26T15:58:19.438Z,1000
2023-04-26T15:59:36.338Z,1000.1
2023-04-26T16:00:53.472Z,1000.1
2023-04-26T16:02:10.695Z,1000.1
2023-04-26T16:03:27.422Z,1000.1
2023-04-26T16:04:44.458Z,1000.1
2023-04-26T16:06:01.417Z,1000.1
2023-04-26T16:07:18.381Z,1000.1
2023-04-26T16:08:40.248Z,1000.1
2023-04-26T16:09:52.365Z,1000.1
2023-04-26T16:11:09.407Z,1000.1
2023-04-26T16:12:26.478Z,1000.2
2023-04-26T16:13:43.381Z,1000.2
2023-04-26T16:15:00.370Z,1000.2
2023-04-26T16:16:17.464Z,1000.2
2023-04-26T16:17:34.396Z,1000.2
2023-04-26T16:18:51.367Z,1000.2
2023-04-26T16:20:08.384Z,1000.1
2023-04-26T16:21:25.450Z,1000.2
2023-04-26T16:22:44.054Z,1000.2
2023-04-26T16:23:59.728Z,1000.1
2023-04-26T16:25:16.373Z,1000.2
2023-04-26T16:26:33.415Z,1000.2
2023-04-26T16:27:50.467Z,1000.1
2023-04-26T16:29:07.388Z,1000.2
2023-04-26T16:30:24.400Z,1000.2
2023-04-26T16:31:41.454Z,1000.2
2023-04-26T16:32:58.455Z,1000.2
2023-04-26T16:34:15.423Z,1000.3